sensor_id;sensor_type;location;lat;lon;timestamp;temperature;humidity
49441;DHT22;35317;51.978;6.296;2023-03-01T00:03:43;-1.90;89.40
49441;DHT22;35317;51.978;6.296;2023-03-01T00:08:44;-2.00;89.50
49441;DHT22;35317;51.978;6.296;2023-03-01T00:13:46;-2.00;89.60
49441;DHT22;35317;51.978;6.296;2023-03-01T00:18:48;-2.00;89.70
49441;DHT22;35317;51.978;6.296;2023-03-01T00:23:49;-2.10;89.80
49441;DHT22;35317;51.978;6.296;2023-03-01T00:28:51;-2.10;90.00
49441;DHT22;35317;51.978;6.296;2023-03-01T00:33:53;-2.20;90.10
49441;DHT22;35317;51.978;6.296;2023-03-01T00:38:57;-2.20;90.20
49441;DHT22;35317;51.978;6.296;2023-03-01T00:43:58;-2.30;90.30
49441;DHT22;35317;51.978;6.296;2023-03-01T00:48:59;-2.30;90.40
49441;DHT22;35317;51.978;6.296;2023-03-01T00:54:02;-2.30;90.60
49441;DHT22;35317;51.978;6.296;2023-03-01T00:59:03;-2.40;90.60
49441;DHT22;35317;51.978;6.296;2023-03-01T01:04:07;-2.40;90.70
49441;DHT22;35317;51.978;6.296;2023-03-01T01:09:10;-2.40;90.80
49441;DHT22;35317;51.978;6.296;2023-03-01T01:14:19;-2.50;90.90
49441;DHT22;35317;51.978;6.296;2023-03-01T01:19:20;-2.50;91.00
49441;DHT22;35317;51.978;6.296;2023-03-01T01:24:21;-2.50;91.10
49441;DHT22;35317;51.978;6.296;2023-03-01T01:29:22;-2.60;91.20
49441;DHT22;35317;51.978;6.296;2023-03-01T01:34:23;-2.60;91.30
49441;DHT22;35317;51.978;6.296;2023-03-01T01:39:24;-2.60;91.50
49441;DHT22;35317;51.978;6.296;2023-03-01T01:44:27;-2.70;91.50
49441;DHT22;35317;51.978;6.296;2023-03-01T01:49:31;-2.70;91.60
49441;DHT22;35317;51.978;6.296;2023-03-01T01:59:48;-2.70;91.70
49441;DHT22;35317;51.978;6.296;2023-03-01T02:05:01;-2.80;91.70
49441;DHT22;35317;51.978;6.296;2023-03-01T02:10:04;-2.80;91.80
49441;DHT22;35317;51.978;6.296;2023-03-01T02:15:05;-2.80;92.00
49441;DHT22;35317;51.978;6.296;2023-03-01T02:31:26;-2.90;92.20
49441;DHT22;35317;51.978;6.296;2023-03-01T02:36:47;-2.90;92.30
49441;DHT22;35317;51.978;6.296;2023-03-01T02:41:53;-3.00;92.40
49441;DHT22;35317;51.978;6.296;2023-03-01T02:46:56;-2.90;92.60
49441;DHT22;35317;51.978;6.296;2023-03-01T02:57:14;-2.90;92.70
49441;DHT22;35317;51.978;6.296;2023-03-01T03:02:25;-2.90;92.80
49441;DHT22;35317;51.978;6.296;2023-03-01T03:07:38;-3.00;92.90
49441;DHT22;35317;51.978;6.296;2023-03-01T03:12:41;-3.00;93.00
49441;DHT22;35317;51.978;6.296;2023-03-01T03:17:42;-3.00;93.00
49441;DHT22;35317;51.978;6.296;2023-03-01T03:22:43;-3.00;93.10
49441;DHT22;35317;51.978;6.296;2023-03-01T03:27:45;-3.00;93.20
49441;DHT22;35317;51.978;6.296;2023-03-01T03:32:47;-3.00;93.20
49441;DHT22;35317;51.978;6.296;2023-03-01T03:37:52;-3.10;93.30
49441;DHT22;35317;51.978;6.296;2023-03-01T03:43:04;-3.10;93.30
49441;DHT22;35317;51.978;6.296;2023-03-01T03:48:07;-3.10;93.40
49441;DHT22;35317;51.978;6.296;2023-03-01T03:53:10;-3.20;93.50
49441;DHT22;35317;51.978;6.296;2023-03-01T03:58:11;-3.20;93.50
49441;DHT22;35317;51.978;6.296;2023-03-01T04:03:15;-3.20;93.40
49441;DHT22;35317;51.978;6.296;2023-03-01T04:08:18;-3.30;93.50
49441;DHT22;35317;51.978;6.296;2023-03-01T04:13:22;-3.30;93.50
49441;DHT22;35317;51.978;6.296;2023-03-01T04:18:23;-3.30;93.70
49441;DHT22;35317;51.978;6.296;2023-03-01T04:23:25;-3.40;93.70
49441;DHT22;35317;51.978;6.296;2023-03-01T04:28:44;-3.40;93.80
49441;DHT22;35317;51.978;6.296;2023-03-01T04:33:48;-3.40;93.90
49441;DHT22;35317;51.978;6.296;2023-03-01T04:38:52;-3.40;93.90
49441;DHT22;35317;51.978;6.296;2023-03-01T04:43:53;-3.40;94.00
49441;DHT22;35317;51.978;6.296;2023-03-01T04:48:54;-3.50;94.10
49441;DHT22;35317;51.978;6.296;2023-03-01T04:53:54;-3.40;94.20
49441;DHT22;35317;51.978;6.296;2023-03-01T04:58:55;-3.50;94.20
49441;DHT22;35317;51.978;6.296;2023-03-01T05:03:56;-3.50;94.30
49441;DHT22;35317;51.978;6.296;2023-03-01T05:09:03;-3.60;94.30
49441;DHT22;35317;51.978;6.296;2023-03-01T05:14:04;-3.60;94.40
49441;DHT22;35317;51.978;6.296;2023-03-01T05:19:06;-3.60;94.60
49441;DHT22;35317;51.978;6.296;2023-03-01T05:24:11;-3.60;94.50
49441;DHT22;35317;51.978;6.296;2023-03-01T05:29:12;-3.60;94.60
49441;DHT22;35317;51.978;6.296;2023-03-01T05:34:13;-3.60;94.60
49441;DHT22;35317;51.978;6.296;2023-03-01T05:39:13;-3.60;94.70
49441;DHT22;35317;51.978;6.296;2023-03-01T05:44:14;-3.60;94.70
49441;DHT22;35317;51.978;6.296;2023-03-01T05:49:15;-3.60;94.80
49441;DHT22;35317;51.978;6.296;2023-03-01T05:54:17;-3.70;94.80
49441;DHT22;35317;51.978;6.296;2023-03-01T05:59:18;-3.70;94.90
49441;DHT22;35317;51.978;6.296;2023-03-01T06:04:19;-3.70;95.00
49441;DHT22;35317;51.978;6.296;2023-03-01T06:09:19;-3.70;95.00
49441;DHT22;35317;51.978;6.296;2023-03-01T06:14:20;-3.80;95.00
49441;DHT22;35317;51.978;6.296;2023-03-01T06:19:21;-3.80;95.10
49441;DHT22;35317;51.978;6.296;2023-03-01T06:24:22;-3.80;95.20
49441;DHT22;35317;51.978;6.296;2023-03-01T06:29:22;-3.90;95.20
49441;DHT22;35317;51.978;6.296;2023-03-01T06:34:23;-3.80;95.30
49441;DHT22;35317;51.978;6.296;2023-03-01T06:39:24;-3.90;95.30
49441;DHT22;35317;51.978;6.296;2023-03-01T06:44:25;-3.90;95.40
49441;DHT22;35317;51.978;6.296;2023-03-01T06:49:26;-3.90;95.50
49441;DHT22;35317;51.978;6.296;2023-03-01T06:54:26;-3.80;95.60
49441;DHT22;35317;51.978;6.296;2023-03-01T06:59:27;-3.80;95.70
49441;DHT22;35317;51.978;6.296;2023-03-01T07:04:28;-3.70;95.80
49441;DHT22;35317;51.978;6.296;2023-03-01T07:09:30;-3.70;95.80
49441;DHT22;35317;51.978;6.296;2023-03-01T07:14:31;-3.70;95.90
49441;DHT22;35317;51.978;6.296;2023-03-01T07:19:32;-3.60;96.00
49441;DHT22;35317;51.978;6.296;2023-03-01T07:24:33;-3.50;96.20
49441;DHT22;35317;51.978;6.296;2023-03-01T07:29:34;-3.40;96.20
49441;DHT22;35317;51.978;6.296;2023-03-01T07:34:36;-3.20;96.40
49441;DHT22;35317;51.978;6.296;2023-03-01T07:39:37;-3.10;96.40
49441;DHT22;35317;51.978;6.296;2023-03-01T07:44:38;-3.00;96.50
49441;DHT22;35317;51.978;6.296;2023-03-01T07:49:38;-2.80;96.70
49441;DHT22;35317;51.978;6.296;2023-03-01T07:54:42;-2.70;96.80
49441;DHT22;35317;51.978;6.296;2023-03-01T07:59:44;-2.40;97.10
49441;DHT22;35317;51.978;6.296;2023-03-01T08:04:45;-2.10;97.10
49441;DHT22;35317;51.978;6.296;2023-03-01T08:09:46;-1.90;97.10
49441;DHT22;35317;51.978;6.296;2023-03-01T08:14:47;-1.60;97.20
49441;DHT22;35317;51.978;6.296;2023-03-01T08:19:47;-1.30;97.60
49441;DHT22;35317;51.978;6.296;2023-03-01T08:24:48;-1.00;97.20
49441;DHT22;35317;51.978;6.296;2023-03-01T08:29:49;-0.70;97.00
49441;DHT22;35317;51.978;6.296;2023-03-01T08:34:49;-0.40;96.90
49441;DHT22;35317;51.978;6.296;2023-03-01T08:39:50;-0.10;96.80
49441;DHT22;35317;51.978;6.296;2023-03-01T08:44:51;0.10;96.70
49441;DHT22;35317;51.978;6.296;2023-03-01T08:49:52;0.30;96.60
49441;DHT22;35317;51.978;6.296;2023-03-01T08:54:53;0.60;96.40
49441;DHT22;35317;51.978;6.296;2023-03-01T08:59:53;0.80;96.20
49441;DHT22;35317;51.978;6.296;2023-03-01T09:04:56;1.10;96.00
49441;DHT22;35317;51.978;6.296;2023-03-01T09:09:57;1.30;95.60
49441;DHT22;35317;51.978;6.296;2023-03-01T09:14:57;1.60;95.30
49441;DHT22;35317;51.978;6.296;2023-03-01T09:19:58;1.80;95.00
49441;DHT22;35317;51.978;6.296;2023-03-01T09:25:00;2.00;94.60
49441;DHT22;35317;51.978;6.296;2023-03-01T09:30:02;2.20;93.90
49441;DHT22;35317;51.978;6.296;2023-03-01T09:35:03;2.40;93.50
49441;DHT22;35317;51.978;6.296;2023-03-01T09:40:06;2.60;93.30
49441;DHT22;35317;51.978;6.296;2023-03-01T09:45:23;2.80;92.90
49441;DHT22;35317;51.978;6.296;2023-03-01T09:50:40;3.00;92.50
49441;DHT22;35317;51.978;6.296;2023-03-01T09:56:05;3.20;92.00
49441;DHT22;35317;51.978;6.296;2023-03-01T10:01:35;3.40;91.20
49441;DHT22;35317;51.978;6.296;2023-03-01T10:06:44;3.70;90.30
49441;DHT22;35317;51.978;6.296;2023-03-01T10:11:55;3.90;89.00
49441;DHT22;35317;51.978;6.296;2023-03-01T10:22:28;4.20;83.30
49441;DHT22;35317;51.978;6.296;2023-03-01T10:27:37;4.40;83.60
49441;DHT22;35317;51.978;6.296;2023-03-01T10:32:49;4.50;82.70
49441;DHT22;35317;51.978;6.296;2023-03-01T10:38:09;4.60;82.10
49441;DHT22;35317;51.978;6.296;2023-03-01T10:43:12;4.70;81.50
49441;DHT22;35317;51.978;6.296;2023-03-01T10:48:21;4.80;80.90
49441;DHT22;35317;51.978;6.296;2023-03-01T10:53:36;5.00;78.00
49441;DHT22;35317;51.978;6.296;2023-03-01T10:58:40;5.10;76.10
49441;DHT22;35317;51.978;6.296;2023-03-01T11:04:11;5.20;75.50
49441;DHT22;35317;51.978;6.296;2023-03-01T11:09:23;5.30;75.50
49441;DHT22;35317;51.978;6.296;2023-03-01T11:14:33;5.40;74.40
49441;DHT22;35317;51.978;6.296;2023-03-01T11:19:36;5.50;74.00
49441;DHT22;35317;51.978;6.296;2023-03-01T11:24:44;5.60;73.90
49441;DHT22;35317;51.978;6.296;2023-03-01T11:29:52;5.60;72.80
49441;DHT22;35317;51.978;6.296;2023-03-01T11:35:03;5.70;72.60
49441;DHT22;35317;51.978;6.296;2023-03-01T11:40:17;5.90;71.90
49441;DHT22;35317;51.978;6.296;2023-03-01T11:45:24;6.00;70.90
49441;DHT22;35317;51.978;6.296;2023-03-01T11:50:42;6.10;69.90
49441;DHT22;35317;51.978;6.296;2023-03-01T12:01:57;6.30;69.00
49441;DHT22;35317;51.978;6.296;2023-03-01T12:12:36;6.50;66.90
49441;DHT22;35317;51.978;6.296;2023-03-01T12:23:31;6.70;65.80
49441;DHT22;35317;51.978;6.296;2023-03-01T12:45:54;8.00;61.50
49441;DHT22;35317;51.978;6.296;2023-03-01T12:51:07;8.30;60.50
49441;DHT22;35317;51.978;6.296;2023-03-01T12:56:21;8.70;59.20
49441;DHT22;35317;51.978;6.296;2023-03-01T13:17:55;9.40;55.50
49441;DHT22;35317;51.978;6.296;2023-03-01T13:23:07;9.50;55.80
49441;DHT22;35317;51.978;6.296;2023-03-01T13:28:36;9.80;55.70
49441;DHT22;35317;51.978;6.296;2023-03-01T13:33:51;10.00;54.70
49441;DHT22;35317;51.978;6.296;2023-03-01T13:38:57;10.20;54.80
49441;DHT22;35317;51.978;6.296;2023-03-01T13:43:59;10.40;54.30
49441;DHT22;35317;51.978;6.296;2023-03-01T13:49:00;10.50;53.50
49441;DHT22;35317;51.978;6.296;2023-03-01T13:54:01;10.40;52.50
49441;DHT22;35317;51.978;6.296;2023-03-01T13:59:05;10.50;52.40
49441;DHT22;35317;51.978;6.296;2023-03-01T14:04:31;10.60;50.80
49441;DHT22;35317;51.978;6.296;2023-03-01T14:09:39;10.40;50.20
49441;DHT22;35317;51.978;6.296;2023-03-01T14:15:08;10.30;50.10
49441;DHT22;35317;51.978;6.296;2023-03-01T14:20:40;10.40;50.40
49441;DHT22;35317;51.978;6.296;2023-03-01T14:25:49;10.60;49.30
49441;DHT22;35317;51.978;6.296;2023-03-01T14:30:53;10.60;48.90
49441;DHT22;35317;51.978;6.296;2023-03-01T14:36:00;10.50;49.30
49441;DHT22;35317;51.978;6.296;2023-03-01T14:46:20;10.70;48.80
49441;DHT22;35317;51.978;6.296;2023-03-01T14:51:22;10.60;49.30
49441;DHT22;35317;51.978;6.296;2023-03-01T14:56:23;10.40;48.70
49441;DHT22;35317;51.978;6.296;2023-03-01T15:01:24;10.20;49.30
49441;DHT22;35317;51.978;6.296;2023-03-01T15:06:24;10.20;50.00
49441;DHT22;35317;51.978;6.296;2023-03-01T15:11:30;10.20;50.00
49441;DHT22;35317;51.978;6.296;2023-03-01T15:16:34;10.10;50.00
49441;DHT22;35317;51.978;6.296;2023-03-01T15:21:45;10.00;50.60
49441;DHT22;35317;51.978;6.296;2023-03-01T15:32:05;9.50;50.30
49441;DHT22;35317;51.978;6.296;2023-03-01T15:38:03;9.20;51.10
49441;DHT22;35317;51.978;6.296;2023-03-01T15:43:04;8.80;50.50
49441;DHT22;35317;51.978;6.296;2023-03-01T15:48:17;8.50;51.40
49441;DHT22;35317;51.978;6.296;2023-03-01T15:53:20;8.20;52.20
49441;DHT22;35317;51.978;6.296;2023-03-01T15:58:23;8.10;52.20
49441;DHT22;35317;51.978;6.296;2023-03-01T16:03:24;7.90;52.70
49441;DHT22;35317;51.978;6.296;2023-03-01T16:08:25;7.70;52.80
49441;DHT22;35317;51.978;6.296;2023-03-01T16:13:26;7.60;53.30
49441;DHT22;35317;51.978;6.296;2023-03-01T16:18:28;7.40;53.90
49441;DHT22;35317;51.978;6.296;2023-03-01T16:23:29;7.30;54.60
49441;DHT22;35317;51.978;6.296;2023-03-01T16:28:29;7.20;55.40
49441;DHT22;35317;51.978;6.296;2023-03-01T16:33:30;7.10;55.60
49441;DHT22;35317;51.978;6.296;2023-03-01T16:38:31;7.00;56.10
49441;DHT22;35317;51.978;6.296;2023-03-01T16:43:35;6.90;56.40
49441;DHT22;35317;51.978;6.296;2023-03-01T16:48:37;6.70;56.90
49441;DHT22;35317;51.978;6.296;2023-03-01T16:53:38;6.60;57.30
49441;DHT22;35317;51.978;6.296;2023-03-01T16:58:39;6.40;57.80
49441;DHT22;35317;51.978;6.296;2023-03-01T17:03:41;6.30;58.20
49441;DHT22;35317;51.978;6.296;2023-03-01T17:08:43;6.10;58.40
49441;DHT22;35317;51.978;6.296;2023-03-01T17:13:44;6.00;58.80
49441;DHT22;35317;51.978;6.296;2023-03-01T17:18:45;5.80;59.30
49441;DHT22;35317;51.978;6.296;2023-03-01T17:23:47;5.60;59.60
49441;DHT22;35317;51.978;6.296;2023-03-01T17:28:49;5.40;60.30
49441;DHT22;35317;51.978;6.296;2023-03-01T17:33:51;5.30;60.80
49441;DHT22;35317;51.978;6.296;2023-03-01T17:38:52;5.10;61.40
49441;DHT22;35317;51.978;6.296;2023-03-01T17:43:53;5.00;61.80
49441;DHT22;35317;51.978;6.296;2023-03-01T17:48:53;4.80;62.20
49441;DHT22;35317;51.978;6.296;2023-03-01T17:53:54;4.70;62.80
49441;DHT22;35317;51.978;6.296;2023-03-01T17:58:55;4.40;63.60
49441;DHT22;35317;51.978;6.296;2023-03-01T18:03:56;4.30;64.10
49441;DHT22;35317;51.978;6.296;2023-03-01T18:08:56;4.10;64.50
49441;DHT22;35317;51.978;6.296;2023-03-01T18:13:57;3.90;65.10
49441;DHT22;35317;51.978;6.296;2023-03-01T18:18:59;3.70;65.60
49441;DHT22;35317;51.978;6.296;2023-03-01T18:24:00;3.60;66.50
49441;DHT22;35317;51.978;6.296;2023-03-01T18:29:01;3.40;66.80
49441;DHT22;35317;51.978;6.296;2023-03-01T18:34:04;3.20;67.30
49441;DHT22;35317;51.978;6.296;2023-03-01T18:39:05;3.00;67.90
49441;DHT22;35317;51.978;6.296;2023-03-01T18:44:06;2.80;68.30
49441;DHT22;35317;51.978;6.296;2023-03-01T18:49:07;2.70;69.00
49441;DHT22;35317;51.978;6.296;2023-03-01T18:54:10;2.50;69.50
49441;DHT22;35317;51.978;6.296;2023-03-01T18:59:11;2.30;70.10
49441;DHT22;35317;51.978;6.296;2023-03-01T19:04:12;2.20;70.60
49441;DHT22;35317;51.978;6.296;2023-03-01T19:09:13;2.10;71.20
49441;DHT22;35317;51.978;6.296;2023-03-01T19:14:15;2.00;71.60
49441;DHT22;35317;51.978;6.296;2023-03-01T19:19:15;1.90;72.00
49441;DHT22;35317;51.978;6.296;2023-03-01T19:24:16;1.80;72.60
49441;DHT22;35317;51.978;6.296;2023-03-01T19:29:17;1.70;73.40
49441;DHT22;35317;51.978;6.296;2023-03-01T19:34:17;1.70;74.10
49441;DHT22;35317;51.978;6.296;2023-03-01T19:39:21;1.70;74.50
49441;DHT22;35317;51.978;6.296;2023-03-01T19:44:22;1.70;75.00
49441;DHT22;35317;51.978;6.296;2023-03-01T19:49:24;1.70;75.30
49441;DHT22;35317;51.978;6.296;2023-03-01T19:54:26;1.70;75.70
49441;DHT22;35317;51.978;6.296;2023-03-01T19:59:27;1.70;76.40
49441;DHT22;35317;51.978;6.296;2023-03-01T20:04:27;1.70;76.40
49441;DHT22;35317;51.978;6.296;2023-03-01T20:09:28;1.70;76.70
49441;DHT22;35317;51.978;6.296;2023-03-01T20:14:29;1.60;77.10
49441;DHT22;35317;51.978;6.296;2023-03-01T20:19:30;1.50;77.50
49441;DHT22;35317;51.978;6.296;2023-03-01T20:24:30;1.30;77.90
49441;DHT22;35317;51.978;6.296;2023-03-01T20:29:31;1.20;78.40
49441;DHT22;35317;51.978;6.296;2023-03-01T20:34:32;1.10;78.90
49441;DHT22;35317;51.978;6.296;2023-03-01T20:39:33;1.00;79.60
49441;DHT22;35317;51.978;6.296;2023-03-01T20:44:34;0.90;79.90
49441;DHT22;35317;51.978;6.296;2023-03-01T20:49:42;0.80;80.20
49441;DHT22;35317;51.978;6.296;2023-03-01T20:54:43;0.80;80.70
49441;DHT22;35317;51.978;6.296;2023-03-01T20:59:43;0.70;81.00
49441;DHT22;35317;51.978;6.296;2023-03-01T21:04:44;0.60;81.50
49441;DHT22;35317;51.978;6.296;2023-03-01T21:09:45;0.60;81.90
49441;DHT22;35317;51.978;6.296;2023-03-01T21:14:46;0.50;82.20
49441;DHT22;35317;51.978;6.296;2023-03-01T21:19:46;0.50;82.60
49441;DHT22;35317;51.978;6.296;2023-03-01T21:24:50;0.40;82.90
49441;DHT22;35317;51.978;6.296;2023-03-01T21:29:51;0.40;83.40
49441;DHT22;35317;51.978;6.296;2023-03-01T21:34:52;0.30;83.80
49441;DHT22;35317;51.978;6.296;2023-03-01T21:39:52;0.30;84.10
49441;DHT22;35317;51.978;6.296;2023-03-01T21:44:53;0.30;84.40
49441;DHT22;35317;51.978;6.296;2023-03-01T21:49:54;0.30;84.80
49441;DHT22;35317;51.978;6.296;2023-03-01T21:54:55;0.30;85.20
49441;DHT22;35317;51.978;6.296;2023-03-01T22:00:01;0.30;85.80
49441;DHT22;35317;51.978;6.296;2023-03-01T22:05:02;0.40;86.10
49441;DHT22;35317;51.978;6.296;2023-03-01T22:10:03;0.50;86.30
49441;DHT22;35317;51.978;6.296;2023-03-01T22:15:06;0.50;86.30
49441;DHT22;35317;51.978;6.296;2023-03-01T22:20:07;0.50;86.50
49441;DHT22;35317;51.978;6.296;2023-03-01T22:25:10;0.50;87.00
49441;DHT22;35317;51.978;6.296;2023-03-01T22:30:11;0.60;87.40
49441;DHT22;35317;51.978;6.296;2023-03-01T22:35:13;0.70;87.50
49441;DHT22;35317;51.978;6.296;2023-03-01T22:40:13;0.70;87.70
49441;DHT22;35317;51.978;6.296;2023-03-01T22:45:15;0.80;88.00
49441;DHT22;35317;51.978;6.296;2023-03-01T22:50:16;0.80;88.20
49441;DHT22;35317;51.978;6.296;2023-03-01T22:55:17;0.80;88.40
49441;DHT22;35317;51.978;6.296;2023-03-01T23:00:18;0.90;88.60
49441;DHT22;35317;51.978;6.296;2023-03-01T23:05:19;0.90;88.70
49441;DHT22;35317;51.978;6.296;2023-03-01T23:10:19;0.90;88.80
49441;DHT22;35317;51.978;6.296;2023-03-01T23:15:20;0.90;89.00
49441;DHT22;35317;51.978;6.296;2023-03-01T23:20:21;0.80;89.30
49441;DHT22;35317;51.978;6.296;2023-03-01T23:25:22;0.80;89.70
49441;DHT22;35317;51.978;6.296;2023-03-01T23:30:23;0.70;89.80
49441;DHT22;35317;51.978;6.296;2023-03-01T23:35:23;0.60;90.00
49441;DHT22;35317;51.978;6.296;2023-03-01T23:40:24;0.50;90.20
49441;DHT22;35317;51.978;6.296;2023-03-01T23:45:25;0.50;90.40
49441;DHT22;35317;51.978;6.296;2023-03-01T23:50:25;0.40;90.60
49441;DHT22;35317;51.978;6.296;2023-03-01T23:55:26;0.30;91.10
